sensor_id;sensor_type;location;lat;lon;timestamp;P1;durP1;ratioP1;P2;durP2;ratioP2
5965;SDS011;3009;43.224;27.976;2022-09-28T00:01:07;2.23;;;1.90;;
5965;SDS011;3009;43.224;27.976;2022-09-28T00:03:36;2.40;;;1.87;;
5965;SDS011;3009;43.224;27.976;2022-09-28T00:06:05;2.00;;;2.00;;
5965;SDS011;3009;43.224;27.976;2022-09-28T00:08:35;2.27;;;2.00;;
5965;SDS011;3009;43.224;27.976;2022-09-28T00:11:04;2.00;;;1.90;;
5965;SDS011;3009;43.224;27.976;2022-09-28T00:13:39;2.20;;;2.00;;
5965;SDS011;3009;43.224;27.976;2022-09-28T00:16:09;2.70;;;1.60;;
5965;SDS011;3009;43.224;27.976;2022-09-28T00:18:40;2.70;;;2.40;;
5965;SDS011;3009;43.224;27.976;2022-09-28T00:21:08;1.93;;;1.93;;
5965;SDS011;3009;43.224;27.976;2022-09-28T00:23:39;2.20;;;2.10;;
5965;SDS011;3009;43.224;27.976;2022-09-28T00:26:23;1.93;;;1.80;;
5965;SDS011;3009;43.224;27.976;2022-09-28T00:28:51;2.20;;;2.00;;
5965;SDS011;3009;43.224;27.976;2022-09-28T00:31:20;3.13;;;2.20;;
5965;SDS011;3009;43.224;27.976;2022-09-28T00:33:49;2.17;;;2.07;;
5965;SDS011;3009;43.224;27.976;2022-09-28T00:36:17;2.10;;;1.90;;
5965;SDS011;3009;43.224;27.976;2022-09-28T00:38:45;2.00;;;1.90;;
5965;SDS011;3009;43.224;27.976;2022-09-28T00:41:14;2.70;;;2.50;;
5965;SDS011;3009;43.224;27.976;2022-09-28T00:43:45;2.27;;;2.17;;
5965;SDS011;3009;43.224;27.976;2022-09-28T00:46:14;2.60;;;2.20;;
5965;SDS011;3009;43.224;27.976;2022-09-28T00:48:48;2.00;;;1.93;;
5965;SDS011;3009;43.224;27.976;2022-09-28T00:51:19;2.70;;;2.50;;
5965;SDS011;3009;43.224;27.976;2022-09-28T00:53:48;1.80;;;1.70;;
5965;SDS011;3009;43.224;27.976;2022-09-28T00:56:18;2.10;;;2.00;;
5965;SDS011;3009;43.224;27.976;2022-09-28T00:58:53;2.60;;;2.30;;
5965;SDS011;3009;43.224;27.976;2022-09-28T01:01:21;2.40;;;1.80;;
5965;SDS011;3009;43.224;27.976;2022-09-28T01:03:49;1.97;;;1.90;;
5965;SDS011;3009;43.224;27.976;2022-09-28T01:06:18;2.30;;;1.90;;
5965;SDS011;3009;43.224;27.976;2022-09-28T01:08:50;2.00;;;1.90;;
5965;SDS011;3009;43.224;27.976;2022-09-28T01:11:21;2.47;;;2.27;;
5965;SDS011;3009;43.224;27.976;2022-09-28T01:13:49;2.10;;;2.00;;
5965;SDS011;3009;43.224;27.976;2022-09-28T01:16:24;2.40;;;2.27;;
5965;SDS011;3009;43.224;27.976;2022-09-28T01:19:03;2.17;;;2.00;;
5965;SDS011;3009;43.224;27.976;2022-09-28T01:21:42;2.03;;;1.93;;
5965;SDS011;3009;43.224;27.976;2022-09-28T01:24:23;2.00;;;1.90;;
5965;SDS011;3009;43.224;27.976;2022-09-28T01:27:10;5.20;;;1.80;;
5965;SDS011;3009;43.224;27.976;2022-09-28T01:29:44;5.60;;;1.90;;
5965;SDS011;3009;43.224;27.976;2022-09-28T01:32:16;2.20;;;1.93;;
5965;SDS011;3009;43.224;27.976;2022-09-28T01:35:10;2.70;;;1.77;;
5965;SDS011;3009;43.224;27.976;2022-09-28T01:37:43;2.20;;;2.10;;
5965;SDS011;3009;43.224;27.976;2022-09-28T01:40:17;1.87;;;1.80;;
5965;SDS011;3009;43.224;27.976;2022-09-28T01:42:50;2.10;;;2.00;;
5965;SDS011;3009;43.224;27.976;2022-09-28T01:45:25;2.00;;;1.90;;
5965;SDS011;3009;43.224;27.976;2022-09-28T01:47:57;2.13;;;2.03;;
5965;SDS011;3009;43.224;27.976;2022-09-28T01:50:29;2.30;;;2.13;;
5965;SDS011;3009;43.224;27.976;2022-09-28T01:53:02;1.97;;;1.90;;
5965;SDS011;3009;43.224;27.976;2022-09-28T01:55:37;2.57;;;2.30;;
5965;SDS011;3009;43.224;27.976;2022-09-28T01:58:10;1.87;;;1.77;;
5965;SDS011;3009;43.224;27.976;2022-09-28T02:00:43;2.57;;;1.80;;
5965;SDS011;3009;43.224;27.976;2022-09-28T02:03:16;1.80;;;1.70;;
5965;SDS011;3009;43.224;27.976;2022-09-28T02:05:49;1.90;;;1.80;;
5965;SDS011;3009;43.224;27.976;2022-09-28T02:08:21;4.90;;;1.77;;
5965;SDS011;3009;43.224;27.976;2022-09-28T02:10:55;1.77;;;1.67;;
5965;SDS011;3009;43.224;27.976;2022-09-28T02:13:30;2.07;;;1.97;;
5965;SDS011;3009;43.224;27.976;2022-09-28T02:16:02;2.33;;;2.00;;
5965;SDS011;3009;43.224;27.976;2022-09-28T02:18:37;2.00;;;1.90;;
5965;SDS011;3009;43.224;27.976;2022-09-28T02:21:06;2.33;;;2.10;;
5965;SDS011;3009;43.224;27.976;2022-09-28T02:23:40;2.00;;;1.90;;
5965;SDS011;3009;43.224;27.976;2022-09-28T02:26:19;2.13;;;2.00;;
5965;SDS011;3009;43.224;27.976;2022-09-28T02:28:53;3.80;;;2.30;;
5965;SDS011;3009;43.224;27.976;2022-09-28T02:31:21;2.23;;;2.13;;
5965;SDS011;3009;43.224;27.976;2022-09-28T02:33:50;2.20;;;2.10;;
5965;SDS011;3009;43.224;27.976;2022-09-28T02:36:20;4.90;;;2.60;;
5965;SDS011;3009;43.224;27.976;2022-09-28T02:38:48;2.20;;;2.10;;
5965;SDS011;3009;43.224;27.976;2022-09-28T02:41:20;1.80;;;1.80;;
5965;SDS011;3009;43.224;27.976;2022-09-28T02:44:00;2.30;;;2.10;;
5965;SDS011;3009;43.224;27.976;2022-09-28T02:46:38;2.30;;;2.10;;
5965;SDS011;3009;43.224;27.976;2022-09-28T02:49:14;2.00;;;1.90;;
5965;SDS011;3009;43.224;27.976;2022-09-28T02:51:51;2.30;;;2.13;;
5965;SDS011;3009;43.224;27.976;2022-09-28T02:54:32;3.67;;;2.50;;
5965;SDS011;3009;43.224;27.976;2022-09-28T02:57:17;3.83;;;2.67;;
5965;SDS011;3009;43.224;27.976;2022-09-28T03:00:01;8.43;;;2.43;;
5965;SDS011;3009;43.224;27.976;2022-09-28T03:02:34;3.73;;;2.40;;
5965;SDS011;3009;43.224;27.976;2022-09-28T03:05:14;2.63;;;2.43;;
5965;SDS011;3009;43.224;27.976;2022-09-28T03:07:48;2.73;;;2.53;;
5965;SDS011;3009;43.224;27.976;2022-09-28T03:10:24;2.43;;;2.30;;
5965;SDS011;3009;43.224;27.976;2022-09-28T03:13:00;2.43;;;2.33;;
5965;SDS011;3009;43.224;27.976;2022-09-28T03:15:32;2.70;;;2.30;;
5965;SDS011;3009;43.224;27.976;2022-09-28T03:18:01;8.17;;;2.37;;
5965;SDS011;3009;43.224;27.976;2022-09-28T03:20:30;2.47;;;2.37;;
5965;SDS011;3009;43.224;27.976;2022-09-28T03:23:00;2.90;;;2.70;;
5965;SDS011;3009;43.224;27.976;2022-09-28T03:25:48;2.87;;;2.67;;
5965;SDS011;3009;43.224;27.976;2022-09-28T03:28:16;2.70;;;2.60;;
5965;SDS011;3009;43.224;27.976;2022-09-28T03:30:46;2.83;;;2.63;;
5965;SDS011;3009;43.224;27.976;2022-09-28T03:33:14;2.80;;;2.13;;
5965;SDS011;3009;43.224;27.976;2022-09-28T03:35:44;2.07;;;2.00;;
5965;SDS011;3009;43.224;27.976;2022-09-28T03:38:13;2.30;;;2.20;;
5965;SDS011;3009;43.224;27.976;2022-09-28T03:40:42;8.23;;;2.63;;
5965;SDS011;3009;43.224;27.976;2022-09-28T03:43:10;2.90;;;2.70;;
5965;SDS011;3009;43.224;27.976;2022-09-28T03:45:39;2.53;;;2.10;;
5965;SDS011;3009;43.224;27.976;2022-09-28T03:48:08;2.60;;;2.40;;
5965;SDS011;3009;43.224;27.976;2022-09-28T03:50:36;2.63;;;2.50;;
5965;SDS011;3009;43.224;27.976;2022-09-28T03:53:04;3.10;;;2.40;;
5965;SDS011;3009;43.224;27.976;2022-09-28T03:55:33;4.23;;;2.67;;
5965;SDS011;3009;43.224;27.976;2022-09-28T03:58:01;3.73;;;2.70;;
5965;SDS011;3009;43.224;27.976;2022-09-28T04:00:29;2.60;;;2.40;;
5965;SDS011;3009;43.224;27.976;2022-09-28T04:02:58;3.90;;;2.30;;
5965;SDS011;3009;43.224;27.976;2022-09-28T04:05:27;2.50;;;2.33;;
5965;SDS011;3009;43.224;27.976;2022-09-28T04:07:55;3.23;;;2.33;;
5965;SDS011;3009;43.224;27.976;2022-09-28T04:10:24;2.80;;;2.60;;
5965;SDS011;3009;43.224;27.976;2022-09-28T04:12:53;7.27;;;3.50;;
5965;SDS011;3009;43.224;27.976;2022-09-28T04:15:21;6.93;;;3.50;;
5965;SDS011;3009;43.224;27.976;2022-09-28T04:17:49;5.10;;;3.23;;
5965;SDS011;3009;43.224;27.976;2022-09-28T04:20:18;5.03;;;3.13;;
5965;SDS011;3009;43.224;27.976;2022-09-28T04:22:47;6.30;;;4.07;;
5965;SDS011;3009;43.224;27.976;2022-09-28T04:25:16;3.60;;;2.70;;
5965;SDS011;3009;43.224;27.976;2022-09-28T04:27:44;3.33;;;3.03;;
5965;SDS011;3009;43.224;27.976;2022-09-28T04:30:29;3.13;;;3.00;;
5965;SDS011;3009;43.224;27.976;2022-09-28T04:32:57;3.57;;;3.37;;
5965;SDS011;3009;43.224;27.976;2022-09-28T04:35:25;4.90;;;3.07;;
5965;SDS011;3009;43.224;27.976;2022-09-28T04:37:55;4.77;;;3.47;;
5965;SDS011;3009;43.224;27.976;2022-09-28T04:40:23;3.80;;;3.30;;
5965;SDS011;3009;43.224;27.976;2022-09-28T04:42:52;3.60;;;3.17;;
5965;SDS011;3009;43.224;27.976;2022-09-28T04:45:21;3.40;;;3.20;;
5965;SDS011;3009;43.224;27.976;2022-09-28T04:47:51;4.37;;;3.00;;
5965;SDS011;3009;43.224;27.976;2022-09-28T04:50:20;7.30;;;3.70;;
5965;SDS011;3009;43.224;27.976;2022-09-28T04:52:48;5.07;;;3.30;;
5965;SDS011;3009;43.224;27.976;2022-09-28T04:55:17;3.90;;;3.60;;
5965;SDS011;3009;43.224;27.976;2022-09-28T04:57:46;3.80;;;3.30;;
5965;SDS011;3009;43.224;27.976;2022-09-28T05:00:14;6.47;;;3.83;;
5965;SDS011;3009;43.224;27.976;2022-09-28T05:02:42;5.93;;;4.00;;
5965;SDS011;3009;43.224;27.976;2022-09-28T05:05:11;7.07;;;3.97;;
5965;SDS011;3009;43.224;27.976;2022-09-28T05:07:39;3.70;;;3.30;;
5965;SDS011;3009;43.224;27.976;2022-09-28T05:10:07;4.17;;;3.73;;
5965;SDS011;3009;43.224;27.976;2022-09-28T05:12:37;3.50;;;3.20;;
5965;SDS011;3009;43.224;27.976;2022-09-28T05:15:05;6.23;;;3.17;;
5965;SDS011;3009;43.224;27.976;2022-09-28T05:17:34;5.77;;;3.40;;
5965;SDS011;3009;43.224;27.976;2022-09-28T05:20:02;3.70;;;3.40;;
5965;SDS011;3009;43.224;27.976;2022-09-28T05:22:31;3.87;;;3.57;;
5965;SDS011;3009;43.224;27.976;2022-09-28T05:24:59;8.97;;;3.67;;
5965;SDS011;3009;43.224;27.976;2022-09-28T05:27:28;7.43;;;4.50;;
5965;SDS011;3009;43.224;27.976;2022-09-28T05:29:57;4.63;;;4.00;;
5965;SDS011;3009;43.224;27.976;2022-09-28T05:32:26;4.27;;;3.83;;
5965;SDS011;3009;43.224;27.976;2022-09-28T05:34:54;5.13;;;3.73;;
5965;SDS011;3009;43.224;27.976;2022-09-28T05:37:22;3.33;;;3.23;;
5965;SDS011;3009;43.224;27.976;2022-09-28T05:39:50;8.37;;;3.53;;
5965;SDS011;3009;43.224;27.976;2022-09-28T05:42:18;4.10;;;3.70;;
5965;SDS011;3009;43.224;27.976;2022-09-28T05:44:46;4.20;;;3.80;;
5965;SDS011;3009;43.224;27.976;2022-09-28T05:47:16;5.20;;;3.73;;
5965;SDS011;3009;43.224;27.976;2022-09-28T05:49:44;8.53;;;4.17;;
5965;SDS011;3009;43.224;27.976;2022-09-28T05:52:12;5.23;;;4.00;;
5965;SDS011;3009;43.224;27.976;2022-09-28T05:54:40;4.57;;;4.27;;
5965;SDS011;3009;43.224;27.976;2022-09-28T05:57:08;7.37;;;4.53;;
5965;SDS011;3009;43.224;27.976;2022-09-28T05:59:37;10.43;;;4.70;;
5965;SDS011;3009;43.224;27.976;2022-09-28T06:02:05;10.53;;;5.30;;
5965;SDS011;3009;43.224;27.976;2022-09-28T06:04:35;9.60;;;4.70;;
5965;SDS011;3009;43.224;27.976;2022-09-28T06:07:03;5.27;;;4.57;;
5965;SDS011;3009;43.224;27.976;2022-09-28T06:09:31;10.03;;;4.80;;
5965;SDS011;3009;43.224;27.976;2022-09-28T06:11:59;6.93;;;4.33;;
5965;SDS011;3009;43.224;27.976;2022-09-28T06:14:28;17.73;;;5.67;;
5965;SDS011;3009;43.224;27.976;2022-09-28T06:16:56;7.93;;;4.53;;
5965;SDS011;3009;43.224;27.976;2022-09-28T06:19:24;7.43;;;4.83;;
5965;SDS011;3009;43.224;27.976;2022-09-28T06:21:54;5.90;;;5.40;;
5965;SDS011;3009;43.224;27.976;2022-09-28T06:24:24;7.33;;;4.53;;
5965;SDS011;3009;43.224;27.976;2022-09-28T06:26:53;4.57;;;4.17;;
5965;SDS011;3009;43.224;27.976;2022-09-28T06:29:21;7.83;;;5.13;;
5965;SDS011;3009;43.224;27.976;2022-09-28T06:31:49;5.33;;;4.83;;
5965;SDS011;3009;43.224;27.976;2022-09-28T06:34:17;7.13;;;4.90;;
5965;SDS011;3009;43.224;27.976;2022-09-28T06:36:47;5.50;;;4.80;;
5965;SDS011;3009;43.224;27.976;2022-09-28T06:39:16;10.33;;;4.87;;
5965;SDS011;3009;43.224;27.976;2022-09-28T06:41:44;6.60;;;4.20;;
5965;SDS011;3009;43.224;27.976;2022-09-28T06:44:12;4.47;;;4.17;;
5965;SDS011;3009;43.224;27.976;2022-09-28T06:46:41;6.63;;;4.20;;
5965;SDS011;3009;43.224;27.976;2022-09-28T06:49:09;20.23;;;4.60;;
5965;SDS011;3009;43.224;27.976;2022-09-28T06:51:42;8.43;;;4.53;;
5965;SDS011;3009;43.224;27.976;2022-09-28T06:54:13;4.47;;;4.07;;
5965;SDS011;3009;43.224;27.976;2022-09-28T06:56:42;6.00;;;4.33;;
5965;SDS011;3009;43.224;27.976;2022-09-28T06:59:11;10.00;;;4.20;;
5965;SDS011;3009;43.224;27.976;2022-09-28T07:01:39;5.87;;;3.80;;
5965;SDS011;3009;43.224;27.976;2022-09-28T07:04:07;4.97;;;3.93;;
5965;SDS011;3009;43.224;27.976;2022-09-28T07:06:35;4.20;;;3.80;;
5965;SDS011;3009;43.224;27.976;2022-09-28T07:09:03;4.00;;;3.60;;
5965;SDS011;3009;43.224;27.976;2022-09-28T07:11:54;5.10;;;3.77;;
5965;SDS011;3009;43.224;27.976;2022-09-28T07:14:22;4.53;;;4.17;;
5965;SDS011;3009;43.224;27.976;2022-09-28T07:17:10;6.23;;;4.10;;
5965;SDS011;3009;43.224;27.976;2022-09-28T07:19:40;13.47;;;3.80;;
5965;SDS011;3009;43.224;27.976;2022-09-28T07:22:08;5.67;;;4.80;;
5965;SDS011;3009;43.224;27.976;2022-09-28T07:24:44;5.13;;;4.67;;
5965;SDS011;3009;43.224;27.976;2022-09-28T07:27:15;11.60;;;5.00;;
5965;SDS011;3009;43.224;27.976;2022-09-28T07:29:43;11.33;;;4.67;;
5965;SDS011;3009;43.224;27.976;2022-09-28T07:32:11;4.90;;;4.50;;
5965;SDS011;3009;43.224;27.976;2022-09-28T07:34:39;10.60;;;5.13;;
5965;SDS011;3009;43.224;27.976;2022-09-28T07:37:09;10.97;;;4.63;;
5965;SDS011;3009;43.224;27.976;2022-09-28T07:39:38;6.30;;;4.17;;
5965;SDS011;3009;43.224;27.976;2022-09-28T07:42:22;9.50;;;4.33;;
5965;SDS011;3009;43.224;27.976;2022-09-28T07:44:50;4.00;;;3.70;;
5965;SDS011;3009;43.224;27.976;2022-09-28T07:47:19;4.40;;;4.00;;
5965;SDS011;3009;43.224;27.976;2022-09-28T07:49:59;4.63;;;4.23;;
5965;SDS011;3009;43.224;27.976;2022-09-28T07:52:27;4.73;;;4.47;;
5965;SDS011;3009;43.224;27.976;2022-09-28T07:54:55;4.60;;;4.23;;
5965;SDS011;3009;43.224;27.976;2022-09-28T07:57:27;13.03;;;5.10;;
5965;SDS011;3009;43.224;27.976;2022-09-28T07:59:57;5.30;;;4.17;;
5965;SDS011;3009;43.224;27.976;2022-09-28T08:02:27;6.60;;;4.90;;
5965;SDS011;3009;43.224;27.976;2022-09-28T08:04:58;4.97;;;4.57;;
5965;SDS011;3009;43.224;27.976;2022-09-28T08:07:26;13.33;;;5.33;;
5965;SDS011;3009;43.224;27.976;2022-09-28T08:09:54;5.00;;;4.60;;
5965;SDS011;3009;43.224;27.976;2022-09-28T08:12:23;6.83;;;5.00;;
5965;SDS011;3009;43.224;27.976;2022-09-28T08:14:52;6.60;;;5.10;;
5965;SDS011;3009;43.224;27.976;2022-09-28T08:17:21;9.00;;;5.00;;
5965;SDS011;3009;43.224;27.976;2022-09-28T08:19:49;9.33;;;5.03;;
5965;SDS011;3009;43.224;27.976;2022-09-28T08:22:35;10.60;;;4.57;;
5965;SDS011;3009;43.224;27.976;2022-09-28T08:25:04;7.90;;;5.10;;
5965;SDS011;3009;43.224;27.976;2022-09-28T08:27:33;13.40;;;5.60;;
5965;SDS011;3009;43.224;27.976;2022-09-28T08:30:03;11.03;;;5.17;;
5965;SDS011;3009;43.224;27.976;2022-09-28T08:32:32;7.73;;;4.47;;
5965;SDS011;3009;43.224;27.976;2022-09-28T08:35:01;10.80;;;5.70;;
5965;SDS011;3009;43.224;27.976;2022-09-28T08:37:29;5.03;;;4.60;;
5965;SDS011;3009;43.224;27.976;2022-09-28T08:39:57;7.70;;;5.33;;
5965;SDS011;3009;43.224;27.976;2022-09-28T08:42:29;10.03;;;5.33;;
5965;SDS011;3009;43.224;27.976;2022-09-28T08:45:06;5.50;;;5.00;;
5965;SDS011;3009;43.224;27.976;2022-09-28T08:47:40;6.40;;;4.73;;
5965;SDS011;3009;43.224;27.976;2022-09-28T08:50:36;16.60;;;4.87;;
5965;SDS011;3009;43.224;27.976;2022-09-28T08:53:18;7.70;;;4.30;;
5965;SDS011;3009;43.224;27.976;2022-09-28T08:55:57;9.57;;;5.03;;
5965;SDS011;3009;43.224;27.976;2022-09-28T08:58:30;5.00;;;4.53;;
5965;SDS011;3009;43.224;27.976;2022-09-28T09:01:04;6.13;;;4.50;;
5965;SDS011;3009;43.224;27.976;2022-09-28T09:03:37;4.83;;;4.43;;
5965;SDS011;3009;43.224;27.976;2022-09-28T09:06:08;7.10;;;5.07;;
5965;SDS011;3009;43.224;27.976;2022-09-28T09:08:50;5.20;;;4.70;;
5965;SDS011;3009;43.224;27.976;2022-09-28T09:11:32;5.07;;;4.73;;
5965;SDS011;3009;43.224;27.976;2022-09-28T09:14:28;8.83;;;4.57;;
5965;SDS011;3009;43.224;27.976;2022-09-28T09:17:24;8.53;;;5.40;;
5965;SDS011;3009;43.224;27.976;2022-09-28T09:20:07;5.57;;;5.07;;
5965;SDS011;3009;43.224;27.976;2022-09-28T09:22:46;6.47;;;5.10;;
5965;SDS011;3009;43.224;27.976;2022-09-28T09:25:24;7.23;;;5.07;;
5965;SDS011;3009;43.224;27.976;2022-09-28T09:27:59;4.90;;;4.37;;
5965;SDS011;3009;43.224;27.976;2022-09-28T09:30:40;9.30;;;4.57;;
5965;SDS011;3009;43.224;27.976;2022-09-28T09:33:26;5.10;;;3.97;;
5965;SDS011;3009;43.224;27.976;2022-09-28T09:36:05;4.67;;;4.27;;
5965;SDS011;3009;43.224;27.976;2022-09-28T09:38:48;5.10;;;4.53;;
5965;SDS011;3009;43.224;27.976;2022-09-28T09:41:29;4.50;;;4.20;;
5965;SDS011;3009;43.224;27.976;2022-09-28T09:44:11;6.47;;;4.20;;
5965;SDS011;3009;43.224;27.976;2022-09-28T09:46:59;8.17;;;4.17;;
5965;SDS011;3009;43.224;27.976;2022-09-28T09:49:35;4.00;;;3.80;;
5965;SDS011;3009;43.224;27.976;2022-09-28T09:52:09;5.00;;;4.60;;
5965;SDS011;3009;43.224;27.976;2022-09-28T09:54:46;4.40;;;4.10;;
5965;SDS011;3009;43.224;27.976;2022-09-28T09:57:18;6.33;;;4.27;;
5965;SDS011;3009;43.224;27.976;2022-09-28T09:59:49;4.17;;;3.97;;
5965;SDS011;3009;43.224;27.976;2022-09-28T10:02:22;3.97;;;3.67;;
5965;SDS011;3009;43.224;27.976;2022-09-28T10:04:53;4.80;;;4.40;;
5965;SDS011;3009;43.224;27.976;2022-09-28T10:07:28;5.30;;;4.80;;
5965;SDS011;3009;43.224;27.976;2022-09-28T10:10:10;5.83;;;4.07;;
5965;SDS011;3009;43.224;27.976;2022-09-28T10:12:41;12.83;;;4.40;;
5965;SDS011;3009;43.224;27.976;2022-09-28T10:15:12;5.93;;;3.90;;
5965;SDS011;3009;43.224;27.976;2022-09-28T10:17:42;5.43;;;4.30;;
5965;SDS011;3009;43.224;27.976;2022-09-28T10:20:12;3.57;;;3.37;;
5965;SDS011;3009;43.224;27.976;2022-09-28T10:22:42;3.63;;;3.37;;
5965;SDS011;3009;43.224;27.976;2022-09-28T10:25:10;4.17;;;3.50;;
5965;SDS011;3009;43.224;27.976;2022-09-28T10:27:41;5.83;;;4.23;;
5965;SDS011;3009;43.224;27.976;2022-09-28T10:30:13;5.00;;;3.50;;
5965;SDS011;3009;43.224;27.976;2022-09-28T10:32:44;4.23;;;3.90;;
5965;SDS011;3009;43.224;27.976;2022-09-28T10:35:22;3.63;;;3.47;;
5965;SDS011;3009;43.224;27.976;2022-09-28T10:37:56;5.37;;;4.87;;
5965;SDS011;3009;43.224;27.976;2022-09-28T10:40:36;5.50;;;5.10;;
5965;SDS011;3009;43.224;27.976;2022-09-28T10:43:15;4.87;;;4.57;;
5965;SDS011;3009;43.224;27.976;2022-09-28T10:45:48;5.87;;;4.53;;
5965;SDS011;3009;43.224;27.976;2022-09-28T10:48:27;6.10;;;5.60;;
5965;SDS011;3009;43.224;27.976;2022-09-28T10:51:03;4.27;;;4.07;;
5965;SDS011;3009;43.224;27.976;2022-09-28T10:53:32;3.90;;;3.60;;
5965;SDS011;3009;43.224;27.976;2022-09-28T10:56:04;7.40;;;4.10;;
5965;SDS011;3009;43.224;27.976;2022-09-28T10:58:36;4.40;;;4.00;;
5965;SDS011;3009;43.224;27.976;2022-09-28T11:01:08;5.03;;;3.57;;
5965;SDS011;3009;43.224;27.976;2022-09-28T11:03:49;4.57;;;4.27;;
5965;SDS011;3009;43.224;27.976;2022-09-28T11:06:23;4.30;;;3.90;;
5965;SDS011;3009;43.224;27.976;2022-09-28T11:08:53;7.47;;;4.30;;
5965;SDS011;3009;43.224;27.976;2022-09-28T11:11:24;4.57;;;4.27;;
5965;SDS011;3009;43.224;27.976;2022-09-28T11:13:52;4.60;;;4.20;;
5965;SDS011;3009;43.224;27.976;2022-09-28T11:16:26;5.27;;;4.60;;
5965;SDS011;3009;43.224;27.976;2022-09-28T11:18:56;5.43;;;4.70;;
5965;SDS011;3009;43.224;27.976;2022-09-28T11:21:27;5.10;;;4.67;;
5965;SDS011;3009;43.224;27.976;2022-09-28T11:24:01;5.07;;;4.77;;
5965;SDS011;3009;43.224;27.976;2022-09-28T11:26:38;5.40;;;4.90;;
5965;SDS011;3009;43.224;27.976;2022-09-28T11:29:21;4.17;;;3.87;;
5965;SDS011;3009;43.224;27.976;2022-09-28T11:31:58;6.20;;;4.40;;
5965;SDS011;3009;43.224;27.976;2022-09-28T11:34:29;6.23;;;4.50;;
5965;SDS011;3009;43.224;27.976;2022-09-28T11:37:29;4.90;;;4.50;;
5965;SDS011;3009;43.224;27.976;2022-09-28T11:40:12;4.67;;;4.20;;
5965;SDS011;3009;43.224;27.976;2022-09-28T11:42:51;4.80;;;4.50;;
5965;SDS011;3009;43.224;27.976;2022-09-28T11:45:38;11.90;;;4.93;;
5965;SDS011;3009;43.224;27.976;2022-09-28T11:48:14;7.43;;;5.30;;
5965;SDS011;3009;43.224;27.976;2022-09-28T11:50:46;10.30;;;5.63;;
5965;SDS011;3009;43.224;27.976;2022-09-28T11:53:21;8.03;;;5.50;;
5965;SDS011;3009;43.224;27.976;2022-09-28T11:55:57;6.03;;;5.27;;
5965;SDS011;3009;43.224;27.976;2022-09-28T11:58:34;6.80;;;5.60;;
5965;SDS011;3009;43.224;27.976;2022-09-28T12:01:07;6.73;;;4.90;;
5965;SDS011;3009;43.224;27.976;2022-09-28T12:03:48;5.23;;;4.70;;
5965;SDS011;3009;43.224;27.976;2022-09-28T12:06:21;18.30;;;5.37;;
5965;SDS011;3009;43.224;27.976;2022-09-28T12:08:58;5.90;;;5.40;;
5965;SDS011;3009;43.224;27.976;2022-09-28T12:11:33;5.50;;;5.00;;
5965;SDS011;3009;43.224;27.976;2022-09-28T12:14:06;5.60;;;5.10;;
5965;SDS011;3009;43.224;27.976;2022-09-28T12:16:43;7.10;;;5.70;;
5965;SDS011;3009;43.224;27.976;2022-09-28T12:19:32;7.13;;;6.43;;
5965;SDS011;3009;43.224;27.976;2022-09-28T12:22:09;7.83;;;6.80;;
5965;SDS011;3009;43.224;27.976;2022-09-28T12:24:46;7.40;;;6.80;;
5965;SDS011;3009;43.224;27.976;2022-09-28T12:27:19;7.57;;;6.20;;
5965;SDS011;3009;43.224;27.976;2022-09-28T12:29:54;8.87;;;5.97;;
5965;SDS011;3009;43.224;27.976;2022-09-28T12:32:30;5.83;;;5.30;;
5965;SDS011;3009;43.224;27.976;2022-09-28T12:35:04;5.97;;;5.50;;
5965;SDS011;3009;43.224;27.976;2022-09-28T12:37:49;8.70;;;5.57;;
5965;SDS011;3009;43.224;27.976;2022-09-28T12:40:37;5.33;;;4.90;;
5965;SDS011;3009;43.224;27.976;2022-09-28T12:43:23;5.47;;;5.07;;
5965;SDS011;3009;43.224;27.976;2022-09-28T12:49:15;6.10;;;5.50;;
5965;SDS011;3009;43.224;27.976;2022-09-28T12:52:17;14.73;;;6.00;;
5965;SDS011;3009;43.224;27.976;2022-09-28T12:57:57;6.20;;;5.70;;
5965;SDS011;3009;43.224;27.976;2022-09-28T13:00:31;6.10;;;5.70;;
5965;SDS011;3009;43.224;27.976;2022-09-28T13:03:14;5.77;;;5.20;;
5965;SDS011;3009;43.224;27.976;2022-09-28T13:06:23;6.03;;;5.53;;
5965;SDS011;3009;43.224;27.976;2022-09-28T13:09:03;9.27;;;5.43;;
5965;SDS011;3009;43.224;27.976;2022-09-28T13:12:04;9.77;;;5.63;;
5965;SDS011;3009;43.224;27.976;2022-09-28T13:14:51;7.63;;;6.23;;
5965;SDS011;3009;43.224;27.976;2022-09-28T13:17:42;9.60;;;5.57;;
5965;SDS011;3009;43.224;27.976;2022-09-28T13:23:10;6.73;;;5.87;;
5965;SDS011;3009;43.224;27.976;2022-09-28T13:25:42;6.77;;;4.90;;
5965;SDS011;3009;43.224;27.976;2022-09-28T13:28:15;6.30;;;5.80;;
5965;SDS011;3009;43.224;27.976;2022-09-28T13:30:54;5.73;;;5.27;;
5965;SDS011;3009;43.224;27.976;2022-09-28T13:33:30;5.90;;;5.50;;
5965;SDS011;3009;43.224;27.976;2022-09-28T13:36:02;6.30;;;5.70;;
5965;SDS011;3009;43.224;27.976;2022-09-28T13:41:22;6.60;;;6.00;;
5965;SDS011;3009;43.224;27.976;2022-09-28T13:44:00;8.13;;;7.27;;
5965;SDS011;3009;43.224;27.976;2022-09-28T13:46:46;12.00;;;8.07;;
5965;SDS011;3009;43.224;27.976;2022-09-28T13:49:26;12.90;;;8.50;;
5965;SDS011;3009;43.224;27.976;2022-09-28T13:52:03;10.53;;;8.63;;
5965;SDS011;3009;43.224;27.976;2022-09-28T13:54:40;9.93;;;9.03;;
5965;SDS011;3009;43.224;27.976;2022-09-28T13:57:20;11.60;;;9.33;;
5965;SDS011;3009;43.224;27.976;2022-09-28T13:59:59;10.47;;;9.50;;
5965;SDS011;3009;43.224;27.976;2022-09-28T14:02:38;13.67;;;10.70;;
5965;SDS011;3009;43.224;27.976;2022-09-28T14:08:29;15.37;;;10.50;;
5965;SDS011;3009;43.224;27.976;2022-09-28T14:13:58;11.30;;;10.40;;
5965;SDS011;3009;43.224;27.976;2022-09-28T14:16:29;10.57;;;9.60;;
5965;SDS011;3009;43.224;27.976;2022-09-28T14:19:01;14.83;;;10.80;;
5965;SDS011;3009;43.224;27.976;2022-09-28T14:24:40;11.50;;;10.27;;
5965;SDS011;3009;43.224;27.976;2022-09-28T14:30:42;13.40;;;9.20;;
5965;SDS011;3009;43.224;27.976;2022-09-28T14:33:15;11.63;;;9.47;;
5965;SDS011;3009;43.224;27.976;2022-09-28T14:35:54;14.00;;;10.17;;
5965;SDS011;3009;43.224;27.976;2022-09-28T14:38:25;9.83;;;8.83;;
5965;SDS011;3009;43.224;27.976;2022-09-28T14:41:28;10.80;;;8.40;;
5965;SDS011;3009;43.224;27.976;2022-09-28T14:44:08;15.13;;;8.77;;
5965;SDS011;3009;43.224;27.976;2022-09-28T14:46:38;9.10;;;8.10;;
5965;SDS011;3009;43.224;27.976;2022-09-28T14:52:17;9.63;;;7.93;;
5965;SDS011;3009;43.224;27.976;2022-09-28T14:55:09;11.30;;;8.80;;
5965;SDS011;3009;43.224;27.976;2022-09-28T14:57:40;9.60;;;8.20;;
5965;SDS011;3009;43.224;27.976;2022-09-28T15:00:14;11.00;;;8.07;;
5965;SDS011;3009;43.224;27.976;2022-09-28T15:02:47;15.80;;;7.60;;
5965;SDS011;3009;43.224;27.976;2022-09-28T15:05:18;11.50;;;7.93;;
5965;SDS011;3009;43.224;27.976;2022-09-28T15:07:52;10.53;;;6.97;;
5965;SDS011;3009;43.224;27.976;2022-09-28T15:10:22;10.93;;;7.73;;
5965;SDS011;3009;43.224;27.976;2022-09-28T15:12:54;14.47;;;7.77;;
5965;SDS011;3009;43.224;27.976;2022-09-28T15:15:25;12.80;;;7.70;;
5965;SDS011;3009;43.224;27.976;2022-09-28T15:18:00;13.37;;;8.27;;
5965;SDS011;3009;43.224;27.976;2022-09-28T15:20:35;12.30;;;7.90;;
5965;SDS011;3009;43.224;27.976;2022-09-28T15:26:03;11.63;;;7.37;;
5965;SDS011;3009;43.224;27.976;2022-09-28T15:28:34;14.70;;;8.37;;
5965;SDS011;3009;43.224;27.976;2022-09-28T15:31:04;13.20;;;7.87;;
5965;SDS011;3009;43.224;27.976;2022-09-28T15:33:33;10.27;;;8.60;;
5965;SDS011;3009;43.224;27.976;2022-09-28T15:36:20;11.10;;;8.67;;
5965;SDS011;3009;43.224;27.976;2022-09-28T15:38:52;11.27;;;8.13;;
5965;SDS011;3009;43.224;27.976;2022-09-28T15:41:24;10.70;;;7.97;;
5965;SDS011;3009;43.224;27.976;2022-09-28T15:47:11;15.13;;;8.10;;
5965;SDS011;3009;43.224;27.976;2022-09-28T15:49:45;13.03;;;7.73;;
5965;SDS011;3009;43.224;27.976;2022-09-28T15:52:25;11.80;;;8.07;;
5965;SDS011;3009;43.224;27.976;2022-09-28T15:54:59;11.70;;;7.37;;
5965;SDS011;3009;43.224;27.976;2022-09-28T15:57:33;9.37;;;8.37;;
5965;SDS011;3009;43.224;27.976;2022-09-28T16:00:04;18.23;;;8.83;;
5965;SDS011;3009;43.224;27.976;2022-09-28T16:02:55;23.17;;;8.27;;
5965;SDS011;3009;43.224;27.976;2022-09-28T16:05:32;14.10;;;8.73;;
5965;SDS011;3009;43.224;27.976;2022-09-28T16:08:12;10.50;;;8.30;;
5965;SDS011;3009;43.224;27.976;2022-09-28T16:10:51;12.23;;;9.20;;